sensor_id;sensor_type;location;lat;lon;timestamp;temperature;humidity
28837;DHT22;50669;50.982;11.022;2023-05-10T00:02:19;19.70;78.10
28837;DHT22;50669;50.982;11.022;2023-05-10T00:04:44;19.70;78.10
28837;DHT22;50669;50.982;11.022;2023-05-10T00:07:10;19.70;78.10
28837;DHT22;50669;50.982;11.022;2023-05-10T00:09:35;19.70;78.20
28837;DHT22;50669;50.982;11.022;2023-05-10T00:12:01;19.70;78.20
28837;DHT22;50669;50.982;11.022;2023-05-10T00:14:29;19.70;78.20
28837;DHT22;50669;50.982;11.022;2023-05-10T00:16:55;19.70;78.20
28837;DHT22;50669;50.982;11.022;2023-05-10T00:19:21;19.70;78.20
28837;DHT22;50669;50.982;11.022;2023-05-10T00:21:51;19.70;78.30
28837;DHT22;50669;50.982;11.022;2023-05-10T00:24:17;19.70;78.30
28837;DHT22;50669;50.982;11.022;2023-05-10T00:26:45;19.70;78.20
28837;DHT22;50669;50.982;11.022;2023-05-10T00:29:10;19.70;78.40
28837;DHT22;50669;50.982;11.022;2023-05-10T00:31:36;19.70;78.40
28837;DHT22;50669;50.982;11.022;2023-05-10T00:34:01;19.70;78.50
28837;DHT22;50669;50.982;11.022;2023-05-10T00:36:27;19.70;78.60
28837;DHT22;50669;50.982;11.022;2023-05-10T00:38:55;19.70;78.60
28837;DHT22;50669;50.982;11.022;2023-05-10T00:41:20;19.70;78.60
28837;DHT22;50669;50.982;11.022;2023-05-10T00:43:47;19.70;78.80
28837;DHT22;50669;50.982;11.022;2023-05-10T00:46:14;19.70;78.80
28837;DHT22;50669;50.982;11.022;2023-05-10T00:48:40;19.70;79.00
28837;DHT22;50669;50.982;11.022;2023-05-10T00:51:06;19.70;79.10
28837;DHT22;50669;50.982;11.022;2023-05-10T00:53:34;19.70;79.20
28837;DHT22;50669;50.982;11.022;2023-05-10T00:56:00;19.70;79.30
28837;DHT22;50669;50.982;11.022;2023-05-10T00:58:27;19.70;79.40
28837;DHT22;50669;50.982;11.022;2023-05-10T01:00:56;19.70;79.40
28837;DHT22;50669;50.982;11.022;2023-05-10T01:03:23;19.70;79.50
28837;DHT22;50669;50.982;11.022;2023-05-10T01:05:48;19.70;79.50
28837;DHT22;50669;50.982;11.022;2023-05-10T01:08:17;19.70;79.60
28837;DHT22;50669;50.982;11.022;2023-05-10T01:10:45;19.70;79.60
28837;DHT22;50669;50.982;11.022;2023-05-10T01:13:12;19.70;79.60
28837;DHT22;50669;50.982;11.022;2023-05-10T01:15:39;19.70;79.70
28837;DHT22;50669;50.982;11.022;2023-05-10T01:18:08;19.70;79.80
28837;DHT22;50669;50.982;11.022;2023-05-10T01:20:40;19.70;79.70
28837;DHT22;50669;50.982;11.022;2023-05-10T01:23:36;19.70;79.80
28837;DHT22;50669;50.982;11.022;2023-05-10T01:26:19;19.70;79.70
28837;DHT22;50669;50.982;11.022;2023-05-10T01:29:14;19.70;79.80
28837;DHT22;50669;50.982;11.022;2023-05-10T01:35:33;19.70;79.90
28837;DHT22;50669;50.982;11.022;2023-05-10T01:37:46;19.70;79.90
28837;DHT22;50669;50.982;11.022;2023-05-10T01:40:37;19.70;80.00
28837;DHT22;50669;50.982;11.022;2023-05-10T01:43:11;19.70;80.00
28837;DHT22;50669;50.982;11.022;2023-05-10T01:45:49;19.70;80.00
28837;DHT22;50669;50.982;11.022;2023-05-10T01:48:18;19.70;80.10
28837;DHT22;50669;50.982;11.022;2023-05-10T01:50:48;19.70;80.10
28837;DHT22;50669;50.982;11.022;2023-05-10T01:53:20;19.70;80.30
28837;DHT22;50669;50.982;11.022;2023-05-10T01:55:48;19.70;80.10
28837;DHT22;50669;50.982;11.022;2023-05-10T01:58:18;19.70;80.30
28837;DHT22;50669;50.982;11.022;2023-05-10T02:00:46;19.70;80.30
28837;DHT22;50669;50.982;11.022;2023-05-10T02:03:13;19.70;80.40
28837;DHT22;50669;50.982;11.022;2023-05-10T02:05:41;19.70;80.40
28837;DHT22;50669;50.982;11.022;2023-05-10T02:08:10;19.70;80.50
28837;DHT22;50669;50.982;11.022;2023-05-10T02:10:39;19.70;80.60
28837;DHT22;50669;50.982;11.022;2023-05-10T02:13:07;19.70;80.70
28837;DHT22;50669;50.982;11.022;2023-05-10T02:15:39;19.70;80.80
28837;DHT22;50669;50.982;11.022;2023-05-10T02:18:06;19.70;80.90
28837;DHT22;50669;50.982;11.022;2023-05-10T02:20:36;19.80;81.00
28837;DHT22;50669;50.982;11.022;2023-05-10T02:23:03;19.70;81.00
28837;DHT22;50669;50.982;11.022;2023-05-10T02:25:30;19.70;81.10
28837;DHT22;50669;50.982;11.022;2023-05-10T02:27:58;19.70;81.10
28837;DHT22;50669;50.982;11.022;2023-05-10T02:30:26;19.70;81.20
28837;DHT22;50669;50.982;11.022;2023-05-10T02:32:52;19.80;81.30
28837;DHT22;50669;50.982;11.022;2023-05-10T02:35:18;19.80;81.20
28837;DHT22;50669;50.982;11.022;2023-05-10T02:37:45;19.70;81.30
28837;DHT22;50669;50.982;11.022;2023-05-10T02:40:15;19.80;81.50
28837;DHT22;50669;50.982;11.022;2023-05-10T02:42:43;19.80;81.50
28837;DHT22;50669;50.982;11.022;2023-05-10T02:45:17;19.80;81.60
28837;DHT22;50669;50.982;11.022;2023-05-10T02:47:43;19.70;81.40
28837;DHT22;50669;50.982;11.022;2023-05-10T02:50:11;19.70;81.50
28837;DHT22;50669;50.982;11.022;2023-05-10T02:52:40;19.70;81.50
28837;DHT22;50669;50.982;11.022;2023-05-10T02:55:09;19.70;81.50
28837;DHT22;50669;50.982;11.022;2023-05-10T02:57:46;19.80;81.60
28837;DHT22;50669;50.982;11.022;2023-05-10T03:00:16;19.70;81.50
28837;DHT22;50669;50.982;11.022;2023-05-10T03:02:42;19.80;81.70
28837;DHT22;50669;50.982;11.022;2023-05-10T03:05:10;19.80;81.60
28837;DHT22;50669;50.982;11.022;2023-05-10T03:07:38;19.70;81.60
28837;DHT22;50669;50.982;11.022;2023-05-10T03:10:04;19.70;81.50
28837;DHT22;50669;50.982;11.022;2023-05-10T03:18:01;19.70;81.60
28837;DHT22;50669;50.982;11.022;2023-05-10T03:20:35;19.80;81.70
28837;DHT22;50669;50.982;11.022;2023-05-10T03:23:22;19.70;81.60
28837;DHT22;50669;50.982;11.022;2023-05-10T03:25:50;19.70;81.60
28837;DHT22;50669;50.982;11.022;2023-05-10T03:28:18;19.70;81.60
28837;DHT22;50669;50.982;11.022;2023-05-10T03:30:44;19.70;81.70
28837;DHT22;50669;50.982;11.022;2023-05-10T03:33:10;19.70;82.40
28837;DHT22;50669;50.982;11.022;2023-05-10T03:35:38;19.70;81.80
28837;DHT22;50669;50.982;11.022;2023-05-10T03:38:04;19.70;81.80
28837;DHT22;50669;50.982;11.022;2023-05-10T03:40:30;19.70;81.80
28837;DHT22;50669;50.982;11.022;2023-05-10T03:42:58;19.70;81.80
28837;DHT22;50669;50.982;11.022;2023-05-10T03:45:23;19.70;81.80
28837;DHT22;50669;50.982;11.022;2023-05-10T03:47:51;19.70;82.50
28837;DHT22;50669;50.982;11.022;2023-05-10T03:50:17;19.80;81.90
28837;DHT22;50669;50.982;11.022;2023-05-10T03:52:43;19.80;81.90
28837;DHT22;50669;50.982;11.022;2023-05-10T03:55:09;19.80;81.90
28837;DHT22;50669;50.982;11.022;2023-05-10T03:57:35;19.80;81.90
28837;DHT22;50669;50.982;11.022;2023-05-10T04:00:02;19.70;81.80
28837;DHT22;50669;50.982;11.022;2023-05-10T04:02:28;19.80;82.00
28837;DHT22;50669;50.982;11.022;2023-05-10T04:04:56;19.80;81.90
28837;DHT22;50669;50.982;11.022;2023-05-10T04:07:22;19.70;81.90
28837;DHT22;50669;50.982;11.022;2023-05-10T04:09:47;19.70;81.90
28837;DHT22;50669;50.982;11.022;2023-05-10T04:12:13;19.80;82.00
28837;DHT22;50669;50.982;11.022;2023-05-10T04:14:41;19.80;81.90
28837;DHT22;50669;50.982;11.022;2023-05-10T04:17:07;19.80;82.00
28837;DHT22;50669;50.982;11.022;2023-05-10T04:19:35;19.80;82.00
28837;DHT22;50669;50.982;11.022;2023-05-10T04:22:03;19.80;82.00
28837;DHT22;50669;50.982;11.022;2023-05-10T04:24:29;19.80;82.10
28837;DHT22;50669;50.982;11.022;2023-05-10T04:26:55;19.80;82.10
28837;DHT22;50669;50.982;11.022;2023-05-10T04:29:21;19.80;82.10
28837;DHT22;50669;50.982;11.022;2023-05-10T04:31:46;19.70;85.30
28837;DHT22;50669;50.982;11.022;2023-05-10T04:34:14;19.60;84.60
28837;DHT22;50669;50.982;11.022;2023-05-10T04:36:40;19.50;86.10
28837;DHT22;50669;50.982;11.022;2023-05-10T04:39:06;19.30;86.10
28837;DHT22;50669;50.982;11.022;2023-05-10T04:41:35;19.20;86.40
28837;DHT22;50669;50.982;11.022;2023-05-10T04:44:00;19.10;86.40
28837;DHT22;50669;50.982;11.022;2023-05-10T04:46:26;19.00;87.20
28837;DHT22;50669;50.982;11.022;2023-05-10T04:48:51;19.00;87.70
28837;DHT22;50669;50.982;11.022;2023-05-10T04:51:17;18.90;88.40
28837;DHT22;50669;50.982;11.022;2023-05-10T04:53:45;18.90;89.40
28837;DHT22;50669;50.982;11.022;2023-05-10T04:56:13;18.80;88.80
28837;DHT22;50669;50.982;11.022;2023-05-10T04:58:41;18.80;87.90
28837;DHT22;50669;50.982;11.022;2023-05-10T05:01:09;18.80;88.90
28837;DHT22;50669;50.982;11.022;2023-05-10T05:03:36;18.70;89.50
28837;DHT22;50669;50.982;11.022;2023-05-10T05:06:02;18.80;89.20
28837;DHT22;50669;50.982;11.022;2023-05-10T05:08:27;18.80;90.00
28837;DHT22;50669;50.982;11.022;2023-05-10T05:10:55;18.70;90.30
28837;DHT22;50669;50.982;11.022;2023-05-10T05:13:23;18.70;90.60
28837;DHT22;50669;50.982;11.022;2023-05-10T05:15:56;18.60;90.80
28837;DHT22;50669;50.982;11.022;2023-05-10T05:18:24;18.50;90.80
28837;DHT22;50669;50.982;11.022;2023-05-10T05:20:50;18.70;90.00
28837;DHT22;50669;50.982;11.022;2023-05-10T05:23:17;18.80;88.50
28837;DHT22;50669;50.982;11.022;2023-05-10T05:25:44;18.90;87.20
28837;DHT22;50669;50.982;11.022;2023-05-10T05:28:09;19.10;86.30
28837;DHT22;50669;50.982;11.022;2023-05-10T05:30:37;19.20;85.50
28837;DHT22;50669;50.982;11.022;2023-05-10T05:33:03;19.30;85.00
28837;DHT22;50669;50.982;11.022;2023-05-10T05:35:31;19.40;84.40
28837;DHT22;50669;50.982;11.022;2023-05-10T05:37:59;19.40;84.10
28837;DHT22;50669;50.982;11.022;2023-05-10T05:40:27;19.50;83.80
28837;DHT22;50669;50.982;11.022;2023-05-10T05:42:57;19.50;83.50
28837;DHT22;50669;50.982;11.022;2023-05-10T05:45:28;19.50;83.20
28837;DHT22;50669;50.982;11.022;2023-05-10T05:47:56;19.60;83.10
28837;DHT22;50669;50.982;11.022;2023-05-10T05:50:24;19.60;82.90
28837;DHT22;50669;50.982;11.022;2023-05-10T05:52:50;19.60;82.70
28837;DHT22;50669;50.982;11.022;2023-05-10T05:55:20;19.70;82.70
28837;DHT22;50669;50.982;11.022;2023-05-10T05:57:46;19.70;82.50
28837;DHT22;50669;50.982;11.022;2023-05-10T06:00:12;19.70;82.30
28837;DHT22;50669;50.982;11.022;2023-05-10T06:02:38;19.70;82.30
28837;DHT22;50669;50.982;11.022;2023-05-10T06:05:04;19.70;82.20
28837;DHT22;50669;50.982;11.022;2023-05-10T06:07:30;19.70;82.10
28837;DHT22;50669;50.982;11.022;2023-05-10T06:09:58;19.70;81.90
28837;DHT22;50669;50.982;11.022;2023-05-10T06:12:26;19.70;81.80
28837;DHT22;50669;50.982;11.022;2023-05-10T06:14:51;19.70;81.80
28837;DHT22;50669;50.982;11.022;2023-05-10T06:17:17;19.80;81.70
28837;DHT22;50669;50.982;11.022;2023-05-10T06:19:45;19.80;82.40
28837;DHT22;50669;50.982;11.022;2023-05-10T06:22:11;19.80;81.60
28837;DHT22;50669;50.982;11.022;2023-05-10T06:24:39;19.80;81.60
28837;DHT22;50669;50.982;11.022;2023-05-10T06:27:06;19.80;82.20
28837;DHT22;50669;50.982;11.022;2023-05-10T06:29:32;19.80;81.40
28837;DHT22;50669;50.982;11.022;2023-05-10T06:31:57;19.80;81.30
28837;DHT22;50669;50.982;11.022;2023-05-10T06:34:25;19.80;81.30
28837;DHT22;50669;50.982;11.022;2023-05-10T06:36:51;19.80;81.20
28837;DHT22;50669;50.982;11.022;2023-05-10T06:39:19;19.80;81.10
28837;DHT22;50669;50.982;11.022;2023-05-10T06:41:45;19.80;81.10
28837;DHT22;50669;50.982;11.022;2023-05-10T06:44:10;19.80;81.00
28837;DHT22;50669;50.982;11.022;2023-05-10T06:46:38;19.80;80.90
28837;DHT22;50669;50.982;11.022;2023-05-10T06:49:06;19.80;80.90
28837;DHT22;50669;50.982;11.022;2023-05-10T06:51:32;19.90;81.00
28837;DHT22;50669;50.982;11.022;2023-05-10T06:53:58;19.80;80.90
28837;DHT22;50669;50.982;11.022;2023-05-10T06:56:23;19.90;81.00
28837;DHT22;50669;50.982;11.022;2023-05-10T06:58:49;19.90;80.90
28837;DHT22;50669;50.982;11.022;2023-05-10T07:01:15;19.90;80.70
28837;DHT22;50669;50.982;11.022;2023-05-10T07:03:40;19.90;80.70
28837;DHT22;50669;50.982;11.022;2023-05-10T07:06:06;19.90;80.80
28837;DHT22;50669;50.982;11.022;2023-05-10T07:08:34;19.90;80.70
28837;DHT22;50669;50.982;11.022;2023-05-10T07:11:04;19.90;80.70
28837;DHT22;50669;50.982;11.022;2023-05-10T07:13:33;19.90;80.60
28837;DHT22;50669;50.982;11.022;2023-05-10T07:15:59;19.90;80.60
28837;DHT22;50669;50.982;11.022;2023-05-10T07:18:26;19.90;80.60
28837;DHT22;50669;50.982;11.022;2023-05-10T07:20:51;19.90;80.50
28837;DHT22;50669;50.982;11.022;2023-05-10T07:23:19;19.90;80.50
28837;DHT22;50669;50.982;11.022;2023-05-10T07:25:47;19.90;80.50
28837;DHT22;50669;50.982;11.022;2023-05-10T07:28:13;19.90;80.50
28837;DHT22;50669;50.982;11.022;2023-05-10T07:30:39;19.90;80.40
28837;DHT22;50669;50.982;11.022;2023-05-10T07:33:09;19.90;80.30
28837;DHT22;50669;50.982;11.022;2023-05-10T07:35:36;19.90;80.40
28837;DHT22;50669;50.982;11.022;2023-05-10T07:38:02;19.90;80.30
28837;DHT22;50669;50.982;11.022;2023-05-10T07:40:28;19.90;80.30
28837;DHT22;50669;50.982;11.022;2023-05-10T07:42:54;19.90;81.10
28837;DHT22;50669;50.982;11.022;2023-05-10T07:45:22;20.00;80.30
28837;DHT22;50669;50.982;11.022;2023-05-10T07:47:50;19.90;80.20
28837;DHT22;50669;50.982;11.022;2023-05-10T07:50:16;19.90;80.20
28837;DHT22;50669;50.982;11.022;2023-05-10T07:52:44;19.90;80.20
28837;DHT22;50669;50.982;11.022;2023-05-10T07:55:10;20.00;80.30
28837;DHT22;50669;50.982;11.022;2023-05-10T07:57:38;20.00;80.30
28837;DHT22;50669;50.982;11.022;2023-05-10T08:00:04;20.00;80.30
28837;DHT22;50669;50.982;11.022;2023-05-10T08:02:30;20.00;80.20
28837;DHT22;50669;50.982;11.022;2023-05-10T08:04:58;20.00;80.30
28837;DHT22;50669;50.982;11.022;2023-05-10T08:07:26;20.00;80.20
28837;DHT22;50669;50.982;11.022;2023-05-10T08:09:52;20.00;80.10
28837;DHT22;50669;50.982;11.022;2023-05-10T08:12:17;20.00;80.10
28837;DHT22;50669;50.982;11.022;2023-05-10T08:14:43;20.00;80.10
28837;DHT22;50669;50.982;11.022;2023-05-10T08:17:11;20.00;80.10
28837;DHT22;50669;50.982;11.022;2023-05-10T08:19:37;20.00;80.10
28837;DHT22;50669;50.982;11.022;2023-05-10T08:22:02;20.00;80.10
28837;DHT22;50669;50.982;11.022;2023-05-10T08:24:28;20.00;80.00
28837;DHT22;50669;50.982;11.022;2023-05-10T08:26:56;20.00;80.80
28837;DHT22;50669;50.982;11.022;2023-05-10T08:29:24;20.00;80.00
28837;DHT22;50669;50.982;11.022;2023-05-10T08:31:49;20.00;79.90
28837;DHT22;50669;50.982;11.022;2023-05-10T08:34:15;20.00;80.00
28837;DHT22;50669;50.982;11.022;2023-05-10T08:36:41;20.00;80.00
28837;DHT22;50669;50.982;11.022;2023-05-10T08:39:06;20.00;79.90
28837;DHT22;50669;50.982;11.022;2023-05-10T08:41:33;20.00;79.90
28837;DHT22;50669;50.982;11.022;2023-05-10T08:44:03;20.00;79.90
28837;DHT22;50669;50.982;11.022;2023-05-10T08:46:29;20.00;79.90
28837;DHT22;50669;50.982;11.022;2023-05-10T08:48:57;20.00;79.90
28837;DHT22;50669;50.982;11.022;2023-05-10T08:51:25;20.00;79.80
28837;DHT22;50669;50.982;11.022;2023-05-10T08:53:55;20.00;79.80
28837;DHT22;50669;50.982;11.022;2023-05-10T08:56:20;20.00;79.80
28837;DHT22;50669;50.982;11.022;2023-05-10T08:58:49;20.00;79.80
28837;DHT22;50669;50.982;11.022;2023-05-10T09:01:16;20.00;79.70
28837;DHT22;50669;50.982;11.022;2023-05-10T09:03:43;20.00;79.70
28837;DHT22;50669;50.982;11.022;2023-05-10T09:06:12;20.10;79.70
28837;DHT22;50669;50.982;11.022;2023-05-10T09:08:38;20.10;79.70
28837;DHT22;50669;50.982;11.022;2023-05-10T09:11:05;20.10;79.70
28837;DHT22;50669;50.982;11.022;2023-05-10T09:13:35;20.10;79.70
28837;DHT22;50669;50.982;11.022;2023-05-10T09:16:01;20.10;79.60
28837;DHT22;50669;50.982;11.022;2023-05-10T09:18:27;20.00;79.60
28837;DHT22;50669;50.982;11.022;2023-05-10T09:20:54;20.10;79.60
28837;DHT22;50669;50.982;11.022;2023-05-10T09:23:22;20.10;79.60
28837;DHT22;50669;50.982;11.022;2023-05-10T09:26:02;20.10;79.50
28837;DHT22;50669;50.982;11.022;2023-05-10T09:28:32;20.10;79.50
28837;DHT22;50669;50.982;11.022;2023-05-10T09:30:57;20.10;79.50
28837;DHT22;50669;50.982;11.022;2023-05-10T09:33:25;20.10;79.50
28837;DHT22;50669;50.982;11.022;2023-05-10T09:35:52;20.10;79.40
28837;DHT22;50669;50.982;11.022;2023-05-10T09:38:17;20.10;79.40
28837;DHT22;50669;50.982;11.022;2023-05-10T09:40:51;20.10;79.40
28837;DHT22;50669;50.982;11.022;2023-05-10T09:43:20;20.10;79.40
28837;DHT22;50669;50.982;11.022;2023-05-10T09:45:48;20.10;79.40
28837;DHT22;50669;50.982;11.022;2023-05-10T09:48:16;20.10;79.40
28837;DHT22;50669;50.982;11.022;2023-05-10T09:50:42;20.10;79.40
28837;DHT22;50669;50.982;11.022;2023-05-10T09:53:07;20.10;79.40
28837;DHT22;50669;50.982;11.022;2023-05-10T09:55:39;20.10;79.40
28837;DHT22;50669;50.982;11.022;2023-05-10T09:58:06;20.10;79.30
28837;DHT22;50669;50.982;11.022;2023-05-10T10:00:39;20.10;79.30
28837;DHT22;50669;50.982;11.022;2023-05-10T10:03:05;20.10;79.30
28837;DHT22;50669;50.982;11.022;2023-05-10T10:05:32;20.10;79.40
28837;DHT22;50669;50.982;11.022;2023-05-10T10:07:58;20.10;79.30
28837;DHT22;50669;50.982;11.022;2023-05-10T10:10:27;20.10;79.30
28837;DHT22;50669;50.982;11.022;2023-05-10T10:12:54;20.10;79.20
28837;DHT22;50669;50.982;11.022;2023-05-10T10:15:23;20.10;79.20
28837;DHT22;50669;50.982;11.022;2023-05-10T10:17:50;20.10;79.20
28837;DHT22;50669;50.982;11.022;2023-05-10T10:20:20;20.10;79.20
28837;DHT22;50669;50.982;11.022;2023-05-10T10:22:47;20.10;79.20
28837;DHT22;50669;50.982;11.022;2023-05-10T10:25:15;20.10;79.10
28837;DHT22;50669;50.982;11.022;2023-05-10T10:35:33;20.10;79.00
28837;DHT22;50669;50.982;11.022;2023-05-10T10:38:02;20.10;79.00
28837;DHT22;50669;50.982;11.022;2023-05-10T10:40:31;20.20;79.00
28837;DHT22;50669;50.982;11.022;2023-05-10T10:43:20;20.20;79.00
28837;DHT22;50669;50.982;11.022;2023-05-10T10:46:08;20.20;78.90
28837;DHT22;50669;50.982;11.022;2023-05-10T10:48:35;20.20;79.00
28837;DHT22;50669;50.982;11.022;2023-05-10T10:51:03;20.20;79.00
28837;DHT22;50669;50.982;11.022;2023-05-10T10:53:29;20.10;78.90
28837;DHT22;50669;50.982;11.022;2023-05-10T10:56:27;20.20;78.90
28837;DHT22;50669;50.982;11.022;2023-05-10T10:58:53;20.10;78.90
28837;DHT22;50669;50.982;11.022;2023-05-10T11:01:33;20.10;78.80
28837;DHT22;50669;50.982;11.022;2023-05-10T11:09:06;20.10;78.90
28837;DHT22;50669;50.982;11.022;2023-05-10T11:11:35;20.10;78.90
28837;DHT22;50669;50.982;11.022;2023-05-10T11:14:09;20.10;78.90
28837;DHT22;50669;50.982;11.022;2023-05-10T11:16:42;20.10;78.90
28837;DHT22;50669;50.982;11.022;2023-05-10T11:19:11;20.10;78.90
28837;DHT22;50669;50.982;11.022;2023-05-10T11:21:51;20.10;78.90
28837;DHT22;50669;50.982;11.022;2023-05-10T11:24:38;20.10;79.00
28837;DHT22;50669;50.982;11.022;2023-05-10T11:27:05;20.10;78.90
28837;DHT22;50669;50.982;11.022;2023-05-10T11:29:30;20.10;78.90
28837;DHT22;50669;50.982;11.022;2023-05-10T11:31:58;20.10;78.90
28837;DHT22;50669;50.982;11.022;2023-05-10T11:34:31;20.10;78.80
28837;DHT22;50669;50.982;11.022;2023-05-10T11:37:00;20.10;78.90
28837;DHT22;50669;50.982;11.022;2023-05-10T11:39:27;20.10;78.80
28837;DHT22;50669;50.982;11.022;2023-05-10T11:41:53;20.10;78.80
28837;DHT22;50669;50.982;11.022;2023-05-10T11:44:19;20.10;78.80
28837;DHT22;50669;50.982;11.022;2023-05-10T11:46:48;20.10;78.80
28837;DHT22;50669;50.982;11.022;2023-05-10T11:49:14;20.10;78.80
28837;DHT22;50669;50.982;11.022;2023-05-10T11:51:39;20.10;78.70
28837;DHT22;50669;50.982;11.022;2023-05-10T11:54:09;20.10;78.80
28837;DHT22;50669;50.982;11.022;2023-05-10T11:56:36;20.10;78.70
28837;DHT22;50669;50.982;11.022;2023-05-10T11:59:01;20.10;79.50
28837;DHT22;50669;50.982;11.022;2023-05-10T12:01:28;20.20;78.80
28837;DHT22;50669;50.982;11.022;2023-05-10T12:03:57;20.20;78.80
28837;DHT22;50669;50.982;11.022;2023-05-10T12:06:32;20.20;78.80
28837;DHT22;50669;50.982;11.022;2023-05-10T12:09:06;20.20;78.70
28837;DHT22;50669;50.982;11.022;2023-05-10T12:11:39;20.20;78.70
28837;DHT22;50669;50.982;11.022;2023-05-10T12:14:06;20.20;78.70
28837;DHT22;50669;50.982;11.022;2023-05-10T12:16:35;20.20;78.60
28837;DHT22;50669;50.982;11.022;2023-05-10T12:19:03;20.20;78.70
28837;DHT22;50669;50.982;11.022;2023-05-10T12:21:29;20.20;78.60
28837;DHT22;50669;50.982;11.022;2023-05-10T12:24:02;20.20;78.60
28837;DHT22;50669;50.982;11.022;2023-05-10T12:26:29;20.20;78.60
28837;DHT22;50669;50.982;11.022;2023-05-10T12:29:15;20.20;78.60
28837;DHT22;50669;50.982;11.022;2023-05-10T12:31:51;20.20;78.50
28837;DHT22;50669;50.982;11.022;2023-05-10T12:36:53;20.20;78.40
28837;DHT22;50669;50.982;11.022;2023-05-10T12:39:19;20.20;78.40
28837;DHT22;50669;50.982;11.022;2023-05-10T12:41:45;20.20;78.40
28837;DHT22;50669;50.982;11.022;2023-05-10T12:44:13;20.20;78.40
28837;DHT22;50669;50.982;11.022;2023-05-10T12:46:41;20.20;78.40
28837;DHT22;50669;50.982;11.022;2023-05-10T12:49:09;20.20;78.40
28837;DHT22;50669;50.982;11.022;2023-05-10T12:51:39;20.20;78.40
28837;DHT22;50669;50.982;11.022;2023-05-10T12:54:05;20.20;78.50
28837;DHT22;50669;50.982;11.022;2023-05-10T12:56:35;20.20;78.50
28837;DHT22;50669;50.982;11.022;2023-05-10T12:59:00;20.20;78.50
28837;DHT22;50669;50.982;11.022;2023-05-10T13:01:26;20.20;78.40
28837;DHT22;50669;50.982;11.022;2023-05-10T13:03:56;20.20;78.40
28837;DHT22;50669;50.982;11.022;2023-05-10T13:06:22;20.20;78.40
28837;DHT22;50669;50.982;11.022;2023-05-10T13:08:48;20.20;78.40
28837;DHT22;50669;50.982;11.022;2023-05-10T13:11:13;20.20;78.40
28837;DHT22;50669;50.982;11.022;2023-05-10T13:13:44;20.20;78.40
28837;DHT22;50669;50.982;11.022;2023-05-10T13:16:10;20.20;78.40
28837;DHT22;50669;50.982;11.022;2023-05-10T13:18:35;20.20;78.40
28837;DHT22;50669;50.982;11.022;2023-05-10T13:21:03;20.20;78.40
28837;DHT22;50669;50.982;11.022;2023-05-10T13:23:33;20.20;78.40
28837;DHT22;50669;50.982;11.022;2023-05-10T13:26:01;20.20;78.30
28837;DHT22;50669;50.982;11.022;2023-05-10T13:28:26;20.20;78.40
28837;DHT22;50669;50.982;11.022;2023-05-10T13:30:52;20.20;78.40
28837;DHT22;50669;50.982;11.022;2023-05-10T13:33:17;20.20;78.30
28837;DHT22;50669;50.982;11.022;2023-05-10T13:35:43;20.20;78.40
28837;DHT22;50669;50.982;11.022;2023-05-10T13:38:12;20.20;78.30
28837;DHT22;50669;50.982;11.022;2023-05-10T13:40:38;20.20;78.30
28837;DHT22;50669;50.982;11.022;2023-05-10T13:43:05;20.20;78.30
28837;DHT22;50669;50.982;11.022;2023-05-10T13:45:34;20.30;78.30
28837;DHT22;50669;50.982;11.022;2023-05-10T13:48:00;20.20;78.30
28837;DHT22;50669;50.982;11.022;2023-05-10T13:50:25;20.20;78.30
28837;DHT22;50669;50.982;11.022;2023-05-10T13:52:53;20.30;78.30
28837;DHT22;50669;50.982;11.022;2023-05-10T13:55:19;20.20;78.20
28837;DHT22;50669;50.982;11.022;2023-05-10T13:57:47;20.30;78.30
28837;DHT22;50669;50.982;11.022;2023-05-10T14:00:16;20.30;78.20
28837;DHT22;50669;50.982;11.022;2023-05-10T14:02:41;20.30;78.20
28837;DHT22;50669;50.982;11.022;2023-05-10T14:05:07;20.30;78.20
28837;DHT22;50669;50.982;11.022;2023-05-10T14:07:33;20.20;78.10
28837;DHT22;50669;50.982;11.022;2023-05-10T14:09:58;20.30;78.20
28837;DHT22;50669;50.982;11.022;2023-05-10T14:12:26;20.30;78.10
28837;DHT22;50669;50.982;11.022;2023-05-10T14:14:52;20.30;78.90
28837;DHT22;50669;50.982;11.022;2023-05-10T14:17:20;20.30;78.00
28837;DHT22;50669;50.982;11.022;2023-05-10T14:19:48;20.30;78.00
28837;DHT22;50669;50.982;11.022;2023-05-10T14:22:15;20.30;78.10
28837;DHT22;50669;50.982;11.022;2023-05-10T14:24:41;20.30;78.10
28837;DHT22;50669;50.982;11.022;2023-05-10T14:27:08;20.30;78.00
28837;DHT22;50669;50.982;11.022;2023-05-10T14:29:34;20.30;78.00
28837;DHT22;50669;50.982;11.022;2023-05-10T14:31:59;20.30;78.00
28837;DHT22;50669;50.982;11.022;2023-05-10T14:34:30;20.30;78.00
28837;DHT22;50669;50.982;11.022;2023-05-10T14:36:56;20.30;78.10
28837;DHT22;50669;50.982;11.022;2023-05-10T14:39:21;20.30;78.00
28837;DHT22;50669;50.982;11.022;2023-05-10T14:41:48;20.30;78.00
28837;DHT22;50669;50.982;11.022;2023-05-10T14:44:16;20.30;77.90
28837;DHT22;50669;50.982;11.022;2023-05-10T14:46:42;20.30;78.00
28837;DHT22;50669;50.982;11.022;2023-05-10T14:49:07;20.30;77.90
28837;DHT22;50669;50.982;11.022;2023-05-10T14:51:36;20.30;77.80
28837;DHT22;50669;50.982;11.022;2023-05-10T14:54:04;20.30;78.00
28837;DHT22;50669;50.982;11.022;2023-05-10T14:56:30;20.30;77.90
28837;DHT22;50669;50.982;11.022;2023-05-10T14:58:55;20.30;77.90
28837;DHT22;50669;50.982;11.022;2023-05-10T15:01:21;20.40;78.00
28837;DHT22;50669;50.982;11.022;2023-05-10T15:03:46;20.40;77.90
28837;DHT22;50669;50.982;11.022;2023-05-10T15:06:14;20.40;77.80
28837;DHT22;50669;50.982;11.022;2023-05-10T15:08:40;20.40;77.90
28837;DHT22;50669;50.982;11.022;2023-05-10T15:11:05;20.40;77.80
28837;DHT22;50669;50.982;11.022;2023-05-10T15:13:31;20.40;77.80
28837;DHT22;50669;50.982;11.022;2023-05-10T15:15:56;20.40;77.80
28837;DHT22;50669;50.982;11.022;2023-05-10T15:18:22;20.40;77.80
28837;DHT22;50669;50.982;11.022;2023-05-10T15:20:48;20.40;77.80
28837;DHT22;50669;50.982;11.022;2023-05-10T15:23:16;20.40;77.80
28837;DHT22;50669;50.982;11.022;2023-05-10T15:25:44;20.40;77.80
28837;DHT22;50669;50.982;11.022;2023-05-10T15:28:17;20.40;77.80
28837;DHT22;50669;50.982;11.022;2023-05-10T15:30:42;20.40;77.80
28837;DHT22;50669;50.982;11.022;2023-05-10T15:33:08;20.40;77.80
28837;DHT22;50669;50.982;11.022;2023-05-10T15:35:36;20.40;77.70
28837;DHT22;50669;50.982;11.022;2023-05-10T15:38:05;20.40;77.80
28837;DHT22;50669;50.982;11.022;2023-05-10T15:40:33;20.40;77.80
28837;DHT22;50669;50.982;11.022;2023-05-10T15:42:58;20.40;77.80
28837;DHT22;50669;50.982;11.022;2023-05-10T15:45:26;20.40;77.80